Bei Facebook empfehlenBei Twitter postenGoogle plusPinterest

Das Wetter im Erzgebirge am 27.02.2015

Wetter und Klima am 27.02.2015 Holzhau im Erzgebirge (630m ü.NN)
Letzte gemessene Temperatur und Uhrzeit der Messung23:45:00 Uhr-2.50 °C
Temperatur (Maximum / Höchstwert) und Uhrzeit der Messung15:15:00 Uhr8.20 °C
Temperatur (Minimum / Tiefstwert) und Uhrzeit der Messung01:00:00-4.80 °C
Errechneter Absolutwert der Temperaturschwankungen zwischen Tmin und Tmax des Tages13.00 K
Errechnete Tagesmitteltemperatur0.23021 °C
Gesamt - Niederschlag des Tages (in flüssiger Form)0.00 Liter / m²
Luftdruck (Maximum / Höchstwert) und Zeitpunkt der Messung23:45:00 Uhr1014.30 hPa
Luftdruck (Minimum / Tiefstwert) und Zeitpunkt der Messung09:30:00 Uhr1008.80 hPa
Errechneter Absolutwert der Luftdruckschwankungen des Tages5.50 hPa
Höchste gemessene Windgeschwindigkeit und Uhrzeit der Messung11:30:00 Uhr7.56 km/h
Errechnete Windhäufigkeit in Relation zu den Messwerten des Tages2.08333 %
Niedrigste Windkühle (Windchill) und Zeitpunkt der Messung01:00:00 Uhr-4.80 °C
Taupunkt (Maximum / Höchstwert) und Uhrzeit der Messung10:30:00 Uhr0.60 °C
Taupunkt (Minimum / Tiefstwert) und Uhrzeit der Messung00:00:00-6.90 °C
Anzahl der automatisch eingelesenen Messwerte 96

Detaillierte Wetter- und Klima- Messwerte für den 27.02.2015 in Holzhau im Erzgebirge (630m ü.NN)
ZeitTemperaturLuftdruckRel. LuftfeuchteWindWindrichtungWindchillTaupunktNiederschlag l/m²
23:45:00-2.50 °C1014.30 hPa88.00 %-4.40 °C 
23:30:00-2.50 °C1014.10 hPa88.00 %-4.40 °C 
23:15:00-2.60 °C1014.00 hPa88.00 %-4.50 °C 
23:00:00-2.50 °C1013.80 hPa88.00 %-4.40 °C 
22:45:00-2.60 °C1013.70 hPa88.00 %-4.50 °C 
22:30:00-2.60 °C1013.60 hPa88.00 %-4.50 °C 
22:15:00-2.70 °C1013.60 hPa88.00 %-4.60 °C 
22:00:00-3.00 °C1013.50 hPa88.00 %-4.90 °C 
21:45:00-3.30 °C1013.40 hPa88.00 %-5.20 °C 
21:30:00-3.50 °C1013.50 hPa87.00 %-5.60 °C 
21:15:00-3.50 °C1013.30 hPa86.00 %-5.70 °C 
21:00:00-3.40 °C1013.10 hPa86.00 %-5.60 °C 
20:45:00-3.30 °C1013.10 hPa85.00 %-5.70 °C 
20:30:00-3.20 °C1012.80 hPa84.00 %-5.80 °C 
20:15:00-3.10 °C1012.70 hPa84.00 %-5.70 °C 
20:00:00-2.70 °C1012.40 hPa83.00 %-5.50 °C 
19:45:00-2.60 °C1012.40 hPa82.00 %-5.60 °C 
19:30:00-2.40 °C1012.20 hPa82.00 %-5.40 °C 
19:15:00-2.10 °C1012.10 hPa81.00 %-5.30 °C 
19:00:00-1.90 °C1012.00 hPa80.00 %-5.20 °C 
18:45:00-1.70 °C1011.90 hPa79.00 %-5.20 °C 
18:30:00-1.20 °C1011.80 hPa76.00 %-5.30 °C 
18:15:00-0.60 °C1011.60 hPa75.00 %-4.90 °C 
18:00:000.30 °C1011.30 hPa73.00 %-4.00 °C 
17:45:001.40 °C1011.00 hPa70.00 %-3.50 °C 
17:30:002.50 °C1010.80 hPa67.00 %-3.00 °C 
17:15:003.90 °C1010.60 hPa63.00 %-2.50 °C 
17:00:005.40 °C1010.60 hPa61.00 %-1.50 °C 
16:45:006.30 °C1010.40 hPa59.00 %-1.10 °C 
16:30:007.10 °C1010.20 hPa58.00 %-0.60 °C 
16:15:007.60 °C1010.50 hPa57.00 %-0.40 °C 
16:00:007.90 °C1010.50 hPa56.00 %-0.30 °C 
15:45:008.10 °C1010.40 hPa56.00 %-0.10 °C 
15:30:007.90 °C1010.20 hPa57.00 %-0.10 °C 
15:15:008.20 °C1010.20 hPa57.00 %0.20 °C 
15:00:007.90 °C1010.10 hPa57.00 %-0.10 °C 
14:45:007.80 °C1010.00 hPa59.00 %0.30 °C 
14:30:007.50 °C1010.00 hPa59.00 %0.00 °C 
14:15:007.10 °C1010.20 hPa60.00 %-0.10 °C 
14:00:007.00 °C1010.00 hPa60.00 %-0.20 °C 
13:45:006.90 °C1009.90 hPa61.00 %-0.10 °C 
13:30:006.80 °C1010.00 hPa60.00 %-0.40 °C 
13:15:006.50 °C1010.10 hPa61.00 %-0.50 °C 
13:00:006.10 °C1010.10 hPa63.00 %-0.40 °C 
12:45:005.80 °C1010.20 hPa63.00 %-0.70 °C 
12:30:005.90 °C1010.10 hPa63.00 %-0.60 °C 
12:15:005.90 °C1009.90 hPa64.00 %-0.40 °C 
12:00:005.50 °C1009.90 hPa63.00 %-1.00 °C 
11:45:005.80 °C1009.80 hPa62.00 %-0.90 °C 
11:30:005.90 °C1009.70 hPa63.00 %7.56 km/hSO4.30 °C-0.60 °C 
11:15:006.10 °C1009.40 hPa64.00 %-0.20 °C 
11:00:005.80 °C1009.50 hPa64.00 %-0.50 °C 
10:45:006.10 °C1009.20 hPa64.00 %-0.20 °C 
10:30:005.80 °C1009.30 hPa69.00 %0.60 °C 
10:15:005.20 °C1009.10 hPa71.00 %0.40 °C 
10:00:004.30 °C1009.10 hPa75.00 %0.30 °C 
09:45:003.30 °C1008.90 hPa76.00 %-0.50 °C 
09:30:002.40 °C1008.80 hPa80.00 %-0.70 °C 
09:15:001.50 °C1009.00 hPa83.00 %-1.10 °C 
09:00:000.40 °C1008.80 hPa86.00 %-1.70 °C 
08:45:00-0.90 °C1009.00 hPa88.00 %-2.80 °C 
08:30:00-2.10 °C1008.90 hPa88.00 %-4.00 °C 
08:15:00-2.70 °C1008.90 hPa87.00 %-4.80 °C 
08:00:00-2.70 °C1008.90 hPa87.00 %-4.80 °C 
07:45:00-2.70 °C1009.00 hPa87.00 %-4.80 °C 
07:30:00-2.70 °C1009.20 hPa87.00 %-4.80 °C 
07:15:00-2.50 °C1009.20 hPa87.00 %-4.60 °C 
07:00:00-2.20 °C1009.10 hPa87.00 %-4.30 °C 
06:45:00-1.80 °C1009.00 hPa87.00 %-3.90 °C 
06:30:00-1.60 °C1009.00 hPa88.00 %4.32 km/hSO-1.60 °C-3.50 °C 
06:15:00-1.80 °C1009.00 hPa89.00 %-3.60 °C 
06:00:00-2.10 °C1009.20 hPa89.00 %-3.90 °C 
05:45:00-2.40 °C1009.10 hPa90.00 %-4.00 °C 
05:30:00-3.30 °C1009.20 hPa90.00 %-4.90 °C 
05:15:00-3.60 °C1009.30 hPa90.00 %-5.20 °C 
05:00:00-3.80 °C1009.40 hPa89.00 %-5.50 °C 
04:45:00-3.90 °C1009.50 hPa89.00 %-5.60 °C 
04:30:00-3.90 °C1009.50 hPa89.00 %-5.60 °C 
04:15:00-3.80 °C1009.60 hPa89.00 %-5.50 °C 
04:00:00-3.70 °C1009.60 hPa89.00 %-5.40 °C 
03:45:00-3.70 °C1009.80 hPa89.00 %-5.40 °C 
03:30:00-3.90 °C1010.00 hPa89.00 %-5.60 °C 
03:15:00-4.10 °C1010.10 hPa89.00 %-5.80 °C 
03:00:00-4.40 °C1010.60 hPa89.00 %-6.10 °C 
02:45:00-4.30 °C1010.60 hPa89.00 %-6.00 °C 
02:30:00-4.20 °C1010.90 hPa89.00 %-5.90 °C 
02:15:00-4.40 °C1010.90 hPa89.00 %-6.10 °C 
02:00:00-4.20 °C1011.20 hPa89.00 %-5.90 °C 
01:45:00-4.20 °C1011.40 hPa88.00 %-6.10 °C 
01:30:00-4.40 °C1011.50 hPa88.00 %-6.30 °C 
01:15:00-4.60 °C1011.60 hPa88.00 %-6.50 °C 
01:00:00-4.80 °C1011.70 hPa87.00 %-6.80 °C 
00:45:00-4.80 °C1012.10 hPa87.00 %-6.80 °C 
00:30:00-4.80 °C1012.30 hPa87.00 %-6.80 °C 
00:15:00-4.60 °C1012.60 hPa87.00 %-6.70 °C 
00:00:00-4.70 °C1012.70 hPa86.00 %-6.90 °C 

Permanenter Link zu dieser Seite: Wetter im Erzgebirge am 27.02.2015
Performance-Info: Die Erstellung der Seite / Statistik(en) / Tabelle(n) erforderte 5 Datenbankserver-Abfrage(n) und dauerte 102 Millisekunden. (Dieser Messwert ist von der Gesamt-Auslastung des Servers abhängig.)
Erzgebirge - Wetter | Erzgebirge - Wetter (Mobilgeräte) | Komplette Klimadatenbank